createdAt,value
2018-08-22T00:00:43.222Z,4.10
2018-08-22T00:03:11.486Z,4.60
2018-08-22T00:05:39.778Z,4.60
2018-08-22T00:08:08.146Z,4.40
2018-08-22T00:10:36.406Z,4.23
2018-08-22T00:13:04.923Z,4.50
2018-08-22T00:15:33.487Z,4.27
2018-08-22T00:18:01.918Z,4.77
2018-08-22T00:20:30.179Z,4.13
2018-08-22T00:22:58.512Z,4.20
2018-08-22T00:25:26.885Z,4.30
2018-08-22T00:27:55.335Z,4.53
2018-08-22T00:30:23.744Z,4.33
2018-08-22T00:32:52.067Z,4.57
2018-08-22T00:35:20.464Z,4.33
2018-08-22T00:37:49.229Z,4.40
2018-08-22T00:40:18.032Z,4.57
2018-08-22T00:42:46.366Z,4.80
2018-08-22T00:45:14.733Z,4.50
2018-08-22T00:47:43.278Z,4.40
2018-08-22T00:50:12.002Z,4.40
2018-08-22T00:52:40.328Z,4.50
2018-08-22T00:55:08.715Z,4.50
2018-08-22T00:57:36.980Z,4.50
2018-08-22T01:00:05.332Z,4.43
2018-08-22T01:02:33.973Z,4.80
2018-08-22T01:05:02.297Z,4.80
2018-08-22T01:07:30.929Z,4.50
2018-08-22T01:09:59.344Z,4.53
2018-08-22T01:12:27.901Z,4.50
2018-08-22T01:14:56.260Z,4.30
2018-08-22T01:17:24.632Z,4.57
2018-08-22T01:19:53.359Z,4.77
2018-08-22T01:22:21.757Z,4.70
2018-08-22T01:24:50.405Z,4.50
2018-08-22T01:27:22.369Z,4.87
2018-08-22T01:29:53.966Z,4.83
2018-08-22T01:32:22.787Z,4.90
2018-08-22T01:34:52.466Z,4.77
2018-08-22T01:37:20.763Z,4.87
2018-08-22T01:39:49.237Z,4.83
2018-08-22T01:42:18.042Z,4.83
2018-08-22T01:44:46.714Z,5.00
2018-08-22T01:47:15.785Z,4.80
2018-08-22T01:49:44.373Z,4.93
2018-08-22T01:52:12.759Z,4.60
2018-08-22T01:54:41.437Z,4.93
2018-08-22T01:57:10.067Z,4.83
2018-08-22T01:59:38.764Z,4.63
2018-08-22T02:02:07.094Z,4.83
2018-08-22T02:04:35.907Z,4.63
2018-08-22T02:07:04.615Z,4.77
2018-08-22T02:09:33.076Z,4.77
2018-08-22T02:12:01.465Z,4.73
2018-08-22T02:14:29.861Z,5.20
2018-08-22T02:16:58.718Z,4.90
2018-08-22T02:19:27.098Z,4.67
2018-08-22T02:21:55.397Z,5.10
2018-08-22T02:24:24.081Z,4.80
2018-08-22T02:26:52.466Z,4.60
2018-08-22T02:29:21.089Z,4.93
2018-08-22T02:31:49.827Z,5.00
2018-08-22T02:34:18.618Z,4.60
2018-08-22T02:36:47.296Z,4.63
2018-08-22T02:39:15.592Z,4.50
2018-08-22T02:41:44.087Z,4.63
2018-08-22T02:44:12.851Z,4.70
2018-08-22T02:46:41.479Z,4.90
2018-08-22T02:49:15.161Z,4.87
2018-08-22T02:51:43.766Z,4.80
2018-08-22T02:54:12.531Z,4.53
2018-08-22T02:56:41.148Z,4.93
2018-08-22T02:59:09.636Z,4.70
2018-08-22T03:01:38.287Z,4.90
2018-08-22T03:04:06.966Z,4.67
2018-08-22T03:06:35.528Z,4.97
2018-08-22T03:09:05.616Z,5.10
2018-08-22T03:11:34.277Z,4.93
2018-08-22T03:14:02.942Z,4.77
2018-08-22T03:16:31.757Z,5.10
2018-08-22T03:19:00.211Z,4.80
2018-08-22T03:21:28.479Z,4.80
2018-08-22T03:23:56.863Z,4.90
2018-08-22T03:26:25.448Z,4.97
2018-08-22T03:28:53.994Z,5.00
2018-08-22T03:31:22.512Z,5.33
2018-08-22T03:33:51.239Z,4.90
2018-08-22T03:36:19.552Z,5.23
2018-08-22T03:38:47.976Z,5.07
2018-08-22T03:41:16.308Z,4.90
2018-08-22T03:43:44.638Z,4.73
2018-08-22T03:46:13.462Z,5.03
2018-08-22T03:48:42.080Z,5.20
2018-08-22T03:51:10.939Z,4.87
2018-08-22T03:53:39.271Z,5.03
2018-08-22T03:56:07.723Z,4.67
2018-08-22T03:58:36.594Z,4.73
2018-08-22T04:01:04.955Z,5.40
2018-08-22T04:03:33.380Z,5.00
2018-08-22T04:06:01.861Z,4.50
2018-08-22T04:08:30.275Z,4.87
2018-08-22T04:10:58.782Z,4.90
2018-08-22T04:13:27.140Z,4.97
2018-08-22T04:15:55.554Z,4.70
2018-08-22T04:18:24.133Z,4.83
2018-08-22T04:20:52.882Z,4.80
2018-08-22T04:23:21.475Z,4.47
2018-08-22T04:25:50.126Z,4.80
2018-08-22T04:28:18.454Z,4.70
2018-08-22T04:30:47.372Z,4.93
2018-08-22T04:33:15.955Z,5.17
2018-08-22T04:35:45.000Z,5.17
2018-08-22T04:38:13.317Z,5.20
2018-08-22T04:40:41.730Z,5.30
2018-08-22T04:43:10.003Z,5.37
2018-08-22T04:45:38.273Z,4.70
2018-08-22T04:48:07.107Z,4.90
2018-08-22T04:50:35.863Z,5.30
2018-08-22T04:53:04.299Z,4.97
2018-08-22T04:55:32.965Z,5.10
2018-08-22T04:58:01.402Z,5.00
2018-08-22T05:00:29.698Z,5.07
2018-08-22T05:02:58.011Z,5.00
2018-08-22T05:05:26.439Z,5.20
2018-08-22T05:07:54.734Z,5.50
2018-08-22T05:10:23.107Z,5.10
2018-08-22T05:12:51.736Z,5.40
2018-08-22T05:15:19.994Z,5.27
2018-08-22T05:17:48.616Z,4.93
2018-08-22T05:20:17.255Z,5.00
2018-08-22T05:22:45.777Z,5.20
2018-08-22T05:25:14.078Z,5.87
2018-08-22T05:27:42.389Z,5.53
2018-08-22T05:30:11.086Z,5.63
2018-08-22T05:32:39.386Z,5.43
2018-08-22T05:35:07.658Z,5.93
2018-08-22T05:37:36.057Z,6.03
2018-08-22T05:40:04.411Z,6.20
2018-08-22T05:42:32.682Z,6.50
2018-08-22T05:45:01.083Z,6.70
2018-08-22T05:47:29.746Z,6.83
2018-08-22T05:50:00.735Z,7.43
2018-08-22T05:52:29.163Z,7.33
2018-08-22T05:54:57.574Z,6.70
2018-08-22T05:57:25.996Z,5.93
2018-08-22T05:59:54.522Z,6.97
2018-08-22T06:02:23.116Z,6.60
2018-08-22T06:04:51.454Z,6.33
2018-08-22T06:07:19.786Z,6.50
2018-08-22T06:09:48.518Z,6.50
2018-08-22T06:12:16.858Z,5.90
2018-08-22T06:14:53.023Z,5.33
2018-08-22T06:17:21.554Z,5.50
2018-08-22T06:19:50.267Z,5.90
2018-08-22T06:22:18.593Z,6.10
2018-08-22T06:24:47.162Z,5.60
2018-08-22T06:27:15.514Z,5.47
2018-08-22T06:29:43.846Z,5.63
2018-08-22T06:32:12.199Z,6.07
2018-08-22T06:34:40.939Z,6.00
2018-08-22T06:37:09.663Z,5.60
2018-08-22T06:39:38.031Z,5.60
2018-08-22T06:42:06.733Z,5.47
2018-08-22T06:44:35.515Z,5.40
2018-08-22T06:47:04.003Z,5.63
2018-08-22T06:49:32.230Z,5.77
2018-08-22T06:52:00.881Z,5.87
2018-08-22T06:54:30.051Z,6.10
2018-08-22T06:56:58.321Z,5.80
2018-08-22T06:59:26.826Z,5.80
2018-08-22T07:01:55.055Z,7.57
2018-08-22T07:04:23.688Z,7.50
2018-08-22T07:06:52.280Z,8.17
2018-08-22T07:09:20.762Z,8.10
2018-08-22T07:11:49.022Z,8.63
2018-08-22T07:14:25.570Z,7.77
2018-08-22T07:16:54.120Z,7.10
2018-08-22T07:19:22.339Z,6.63
2018-08-22T07:21:50.592Z,7.33
2018-08-22T07:24:19.143Z,7.07
2018-08-22T07:26:47.368Z,6.83
2018-08-22T07:29:15.828Z,5.80
2018-08-22T07:31:44.105Z,5.57
2018-08-22T07:34:12.766Z,5.63
2018-08-22T07:36:41.217Z,5.57
2018-08-22T07:39:11.823Z,5.07
2018-08-22T07:41:40.123Z,5.63
2018-08-22T07:44:09.209Z,5.83
2018-08-22T07:46:37.445Z,5.73
2018-08-22T07:49:06.144Z,5.87
2018-08-22T07:51:34.372Z,5.97
2018-08-22T07:54:02.602Z,5.40
2018-08-22T07:56:31.157Z,5.87
2018-08-22T07:59:11.658Z,5.97
2018-08-22T08:01:39.907Z,5.90
2018-08-22T08:04:15.152Z,6.37
2018-08-22T08:06:43.735Z,6.10
2018-08-22T08:09:13.010Z,6.50
2018-08-22T08:11:41.655Z,6.53
2018-08-22T08:14:09.971Z,6.17
2018-08-22T08:16:38.290Z,7.00
2018-08-22T08:19:07.182Z,6.40
2018-08-22T08:21:35.621Z,6.17
2018-08-22T08:24:03.939Z,6.40
2018-08-22T08:26:32.214Z,5.33
2018-08-22T08:29:00.425Z,4.80
2018-08-22T08:31:28.761Z,4.28
2018-08-22T08:33:57.466Z,4.22
2018-08-22T08:36:25.799Z,4.00
2018-08-22T08:38:54.536Z,4.00
2018-08-22T08:41:23.051Z,4.05
2018-08-22T08:43:51.291Z,4.30
2018-08-22T08:46:19.583Z,4.60
2018-08-22T08:48:47.899Z,3.98
2018-08-22T08:51:16.387Z,3.90
2018-08-22T08:53:44.917Z,3.80
2018-08-22T08:56:13.605Z,3.62
2018-08-22T08:58:41.850Z,4.08
2018-08-22T09:01:10.119Z,3.87
2018-08-22T09:03:38.748Z,3.55
2018-08-22T09:06:07.437Z,3.67
2018-08-22T09:08:35.664Z,3.72
2018-08-22T09:11:03.955Z,3.80
2018-08-22T09:13:32.275Z,4.30
2018-08-22T09:16:00.786Z,3.75
2018-08-22T09:18:29.406Z,3.95
2018-08-22T09:20:58.046Z,4.35
2018-08-22T09:23:26.177Z,4.00
2018-08-22T09:25:54.432Z,4.15
2018-08-22T09:28:23.091Z,3.98
2018-08-22T09:30:51.730Z,3.80
2018-08-22T09:33:20.466Z,3.85
2018-08-22T09:35:49.424Z,4.03
2018-08-22T09:38:17.691Z,3.85
2018-08-22T09:40:46.782Z,4.10
2018-08-22T09:43:15.335Z,4.12
2018-08-22T09:45:43.888Z,4.55
2018-08-22T09:48:12.206Z,3.77
2018-08-22T09:50:40.667Z,3.80
2018-08-22T09:53:09.391Z,4.17
2018-08-22T09:55:38.035Z,3.95
2018-08-22T09:58:06.290Z,4.30
2018-08-22T10:00:39.820Z,4.10
2018-08-22T10:03:08.107Z,3.92
2018-08-22T10:05:36.830Z,3.83
2018-08-22T10:08:05.466Z,4.10
2018-08-22T10:10:34.163Z,4.40
2018-08-22T10:13:02.555Z,4.08
2018-08-22T10:15:41.088Z,4.12
2018-08-22T10:18:09.305Z,4.30
2018-08-22T10:20:38.142Z,4.33
2018-08-22T10:23:06.388Z,4.08
2018-08-22T10:25:34.991Z,4.20
2018-08-22T10:28:03.566Z,4.22
2018-08-22T10:30:32.008Z,4.20
2018-08-22T10:33:00.717Z,4.30
2018-08-22T10:35:29.114Z,4.25
2018-08-22T10:37:57.388Z,4.50
2018-08-22T10:40:26.228Z,4.65
2018-08-22T10:42:54.489Z,4.30
2018-08-22T10:45:22.844Z,4.65
2018-08-22T10:47:51.464Z,4.25
2018-08-22T10:50:20.146Z,4.03
2018-08-22T10:52:48.356Z,4.20
2018-08-22T10:55:16.579Z,4.60
2018-08-22T10:57:45.296Z,4.58
2018-08-22T11:00:13.558Z,4.30
2018-08-22T11:02:41.783Z,4.17
2018-08-22T11:05:10.022Z,4.58
2018-08-22T11:07:38.407Z,4.08
2018-08-22T11:10:06.619Z,4.40
2018-08-22T11:12:34.844Z,4.40
2018-08-22T11:15:46.704Z,4.22
2018-08-22T11:18:15.368Z,4.42
2018-08-22T11:20:44.738Z,4.55
2018-08-22T11:23:24.846Z,4.30
2018-08-22T11:26:03.983Z,4.50
2018-08-22T11:28:44.043Z,4.55
2018-08-22T11:31:23.439Z,4.50
2018-08-22T11:34:03.071Z,4.60
2018-08-22T11:36:30.860Z,3.85
2018-08-22T11:38:59.376Z,4.35
2018-08-22T11:41:28.116Z,3.72
2018-08-22T11:43:56.350Z,4.15
2018-08-22T11:46:24.617Z,4.03
2018-08-22T11:48:53.269Z,4.00
2018-08-22T11:51:21.868Z,3.95
2018-08-22T11:53:50.440Z,4.20
2018-08-22T11:56:19.116Z,4.08
2018-08-22T11:58:47.507Z,4.10
2018-08-22T12:01:15.739Z,3.77
2018-08-22T12:03:44.387Z,4.60
2018-08-22T12:06:12.952Z,3.95
2018-08-22T12:08:41.862Z,4.10
2018-08-22T12:11:10.074Z,4.28
2018-08-22T12:13:38.295Z,4.00
2018-08-22T12:16:10.749Z,3.85
2018-08-22T12:18:39.362Z,4.00
2018-08-22T12:21:07.957Z,3.90
2018-08-22T12:23:36.227Z,3.52
2018-08-22T12:26:04.456Z,3.75
2018-08-22T12:28:32.929Z,3.60
2018-08-22T12:31:01.278Z,4.05
2018-08-22T12:33:29.560Z,3.70
2018-08-22T12:35:58.044Z,4.40
2018-08-22T12:38:26.729Z,4.20
2018-08-22T12:40:54.959Z,4.10
2018-08-22T12:43:23.170Z,3.70
2018-08-22T12:45:51.599Z,4.28
2018-08-22T12:48:20.134Z,4.03
2018-08-22T12:50:48.930Z,3.80
2018-08-22T12:53:17.640Z,3.95
2018-08-22T12:55:46.762Z,4.20
2018-08-22T12:58:15.299Z,4.45
2018-08-22T13:00:43.892Z,3.67
2018-08-22T13:03:12.187Z,4.37
2018-08-22T13:05:40.430Z,4.75
2018-08-22T13:08:08.981Z,4.72
2018-08-22T13:10:37.257Z,4.58
2018-08-22T13:13:05.927Z,4.50
2018-08-22T13:16:22.221Z,4.30
2018-08-22T13:18:50.508Z,4.40
2018-08-22T13:21:18.914Z,4.42
2018-08-22T13:23:47.222Z,5.15
2018-08-22T13:26:15.531Z,5.03
2018-08-22T13:28:44.027Z,5.35
2018-08-22T13:31:12.257Z,4.67
2018-08-22T13:33:40.505Z,5.37
2018-08-22T13:36:08.737Z,5.22
2018-08-22T13:38:36.968Z,4.50
2018-08-22T13:41:05.342Z,5.20
2018-08-22T13:43:33.571Z,5.05
2018-08-22T13:46:02.065Z,4.95
2018-08-22T13:48:30.856Z,5.50
2018-08-22T13:50:59.108Z,5.35
2018-08-22T13:53:27.652Z,5.78
2018-08-22T13:55:55.981Z,5.47
2018-08-22T13:58:24.200Z,5.05
2018-08-22T14:00:52.472Z,5.22
2018-08-22T14:03:20.733Z,5.65
2018-08-22T14:05:49.474Z,5.58
2018-08-22T14:08:17.855Z,5.62
2018-08-22T14:10:46.369Z,6.15
2018-08-22T14:13:14.628Z,6.50
2018-08-22T14:16:14.119Z,5.78
2018-08-22T14:18:42.475Z,5.83
2018-08-22T14:21:10.740Z,5.72
2018-08-22T14:23:39.384Z,5.33
2018-08-22T14:26:07.895Z,4.90
2018-08-22T14:28:36.150Z,4.35
2018-08-22T14:31:04.562Z,4.60
2018-08-22T14:33:33.010Z,4.50
2018-08-22T14:36:01.247Z,4.93
2018-08-22T14:38:29.485Z,4.80
2018-08-22T14:40:57.931Z,5.33
2018-08-22T14:43:26.165Z,4.97
2018-08-22T14:45:54.850Z,5.63
2018-08-22T14:48:23.040Z,6.20
2018-08-22T14:50:51.619Z,7.80
2018-08-22T14:53:20.000Z,5.90
2018-08-22T14:55:48.974Z,6.07
2018-08-22T14:58:17.143Z,6.40
2018-08-22T15:00:45.383Z,6.73
2018-08-22T15:03:13.897Z,6.80
2018-08-22T15:05:41.944Z,6.60
2018-08-22T15:08:10.277Z,6.47
2018-08-22T15:10:38.510Z,6.50
2018-08-22T15:13:06.783Z,6.67
2018-08-22T15:19:00.987Z,6.23
2018-08-22T15:21:29.215Z,6.77
2018-08-22T15:23:57.442Z,6.10
2018-08-22T15:26:25.674Z,6.57
2018-08-22T15:28:54.154Z,6.63
2018-08-22T15:31:22.428Z,6.27
2018-08-22T15:33:50.687Z,5.77
2018-08-22T15:36:19.122Z,6.30
2018-08-22T15:38:47.428Z,5.93
2018-08-22T15:41:15.795Z,6.30
2018-08-22T15:43:44.467Z,6.07
2018-08-22T15:46:13.135Z,6.27
2018-08-22T15:48:41.356Z,6.07
2018-08-22T15:51:09.804Z,7.13
2018-08-22T15:53:38.271Z,6.50
2018-08-22T15:56:06.539Z,6.30
2018-08-22T15:58:35.369Z,6.20
2018-08-22T16:01:03.626Z,7.03
2018-08-22T16:03:32.112Z,6.57
2018-08-22T16:06:00.326Z,7.20
2018-08-22T16:08:28.980Z,7.73
2018-08-22T16:10:57.691Z,7.17
2018-08-22T16:13:28.700Z,6.83
2018-08-22T16:16:56.175Z,6.83
2018-08-22T16:19:24.701Z,6.37
2018-08-22T16:21:52.901Z,6.83
2018-08-22T16:24:24.968Z,6.60
2018-08-22T16:26:53.590Z,6.80
2018-08-22T16:29:21.774Z,7.23
2018-08-22T16:31:49.994Z,6.37
2018-08-22T16:34:18.315Z,6.63
2018-08-22T16:36:46.620Z,6.30
2018-08-22T16:39:19.498Z,6.10
2018-08-22T16:41:47.986Z,6.43
2018-08-22T16:44:17.012Z,6.40
2018-08-22T16:46:45.252Z,6.57
2018-08-22T16:49:13.888Z,7.00
2018-08-22T16:51:42.111Z,6.40
2018-08-22T16:54:10.452Z,6.63
2018-08-22T16:56:39.195Z,6.30
2018-08-22T16:59:15.798Z,6.30
2018-08-22T17:01:46.812Z,6.80
2018-08-22T17:04:15.283Z,6.53
2018-08-22T17:06:43.966Z,7.00
2018-08-22T17:09:12.659Z,6.50
2018-08-22T17:11:41.369Z,6.00
2018-08-22T17:14:10.171Z,6.73
2018-08-22T17:17:07.547Z,6.33
2018-08-22T17:19:36.084Z,8.00
2018-08-22T17:22:04.584Z,7.67
2018-08-22T17:24:32.786Z,7.67
2018-08-22T17:27:01.303Z,7.90
2018-08-22T17:29:29.534Z,7.13
2018-08-22T17:32:04.182Z,7.97
2018-08-22T17:34:32.789Z,8.83
2018-08-22T17:37:07.731Z,8.00
2018-08-22T17:39:35.983Z,6.97
2018-08-22T17:42:04.743Z,7.03
2018-08-22T17:44:33.078Z,6.50
2018-08-22T17:47:01.297Z,7.20
2018-08-22T17:49:29.523Z,8.20
2018-08-22T17:52:05.439Z,8.90
2018-08-22T17:54:33.910Z,9.63
2018-08-22T17:57:18.493Z,7.63
2018-08-22T17:59:46.714Z,7.60
2018-08-22T18:02:15.256Z,7.37
2018-08-22T18:04:55.053Z,6.93
2018-08-22T18:07:23.830Z,7.00
2018-08-22T18:09:52.466Z,6.23
2018-08-22T18:12:24.264Z,6.53
2018-08-22T18:15:29.589Z,6.87
2018-08-22T18:17:58.243Z,7.07
2018-08-22T18:20:28.878Z,6.50
2018-08-22T18:22:57.570Z,6.60
2018-08-22T18:25:26.755Z,7.17
2018-08-22T18:27:59.876Z,6.23
2018-08-22T18:30:29.344Z,6.80
2018-08-22T18:32:57.996Z,6.70
2018-08-22T18:35:26.781Z,6.57
2018-08-22T18:37:55.864Z,6.93
2018-08-22T18:40:29.423Z,6.50
2018-08-22T18:43:01.626Z,6.67
2018-08-22T18:45:30.765Z,6.67
2018-08-22T18:48:01.436Z,7.33
2018-08-22T18:50:30.500Z,6.57
2018-08-22T18:53:01.012Z,7.00
2018-08-22T18:55:32.047Z,6.60
2018-08-22T18:58:02.478Z,6.70
2018-08-22T19:00:35.978Z,7.07
2018-08-22T19:03:04.660Z,6.53
2018-08-22T19:05:34.804Z,6.60
2018-08-22T19:08:14.434Z,6.40
2018-08-22T19:10:44.570Z,6.87
2018-08-22T19:13:19.827Z,6.40
2018-08-22T19:19:07.598Z,7.13
2018-08-22T19:21:37.541Z,6.30
2018-08-22T19:24:07.239Z,6.50
2018-08-22T19:26:36.643Z,6.57
2018-08-22T19:29:06.844Z,7.33
2018-08-22T19:31:40.610Z,6.83
2018-08-22T19:34:09.619Z,7.13
2018-08-22T19:36:38.655Z,7.20
2018-08-22T19:39:07.655Z,7.40
2018-08-22T19:41:36.723Z,7.23
2018-08-22T19:44:07.311Z,6.53
2018-08-22T19:46:37.012Z,6.77
2018-08-22T19:49:06.159Z,6.87
2018-08-22T19:51:35.199Z,6.30
2018-08-22T19:54:07.039Z,7.07
2018-08-22T19:56:36.105Z,7.17
2018-08-22T19:59:05.642Z,7.03
2018-08-22T20:01:36.459Z,6.83
2018-08-22T20:04:06.497Z,6.60
2018-08-22T20:06:36.202Z,7.27
2018-08-22T20:09:06.263Z,6.57
2018-08-22T20:11:35.278Z,6.90
2018-08-22T20:14:06.211Z,6.87
2018-08-22T20:17:27.927Z,7.00
2018-08-22T20:19:56.953Z,6.43
2018-08-22T20:22:32.350Z,7.20
2018-08-22T20:25:02.149Z,6.20
2018-08-22T20:30:59.997Z,7.27
2018-08-22T20:33:28.948Z,6.70
2018-08-22T20:35:58.006Z,6.17
2018-08-22T20:38:27.506Z,6.70
2018-08-22T20:41:00.817Z,6.70
2018-08-22T20:43:29.825Z,6.67
2018-08-22T20:45:59.350Z,6.80
2018-08-22T20:48:28.711Z,6.07
2018-08-22T20:50:57.604Z,6.83
2018-08-22T20:53:26.372Z,7.00
2018-08-22T20:55:55.367Z,6.83
2018-08-22T20:58:29.403Z,6.47
2018-08-22T21:00:58.282Z,6.40
2018-08-22T21:03:26.614Z,6.40
2018-08-22T21:05:54.896Z,6.17
2018-08-22T21:08:23.691Z,6.57
2018-08-22T21:10:52.276Z,6.47
2018-08-22T21:13:25.864Z,6.47
2018-08-22T21:19:29.583Z,6.70
2018-08-22T21:21:57.991Z,6.43
2018-08-22T21:24:26.662Z,6.17
2018-08-22T21:26:55.235Z,6.83
2018-08-22T21:29:23.925Z,6.93
2018-08-22T21:31:52.412Z,6.50
2018-08-22T21:34:21.771Z,6.33
2018-08-22T21:36:50.390Z,6.20
2018-08-22T21:39:25.141Z,6.07
2018-08-22T21:41:53.797Z,6.40
2018-08-22T21:44:23.082Z,6.77
2018-08-22T21:46:58.498Z,6.60
2018-08-22T21:49:27.206Z,6.20
2018-08-22T21:51:59.694Z,6.73
2018-08-22T21:54:28.303Z,6.60
2018-08-22T21:56:56.710Z,6.60
2018-08-22T21:59:25.291Z,6.80
2018-08-22T22:01:58.874Z,6.70
2018-08-22T22:04:32.457Z,6.40
2018-08-22T22:07:01.347Z,6.47
2018-08-22T22:09:29.566Z,7.00
2018-08-22T22:11:59.572Z,6.60
2018-08-22T22:14:30.552Z,6.90
2018-08-22T22:16:59.466Z,6.47
2018-08-22T22:19:30.427Z,6.60
2018-08-22T22:21:59.230Z,6.23
2018-08-22T22:24:27.827Z,6.70
2018-08-22T22:26:56.347Z,6.60
2018-08-22T22:29:26.327Z,6.43
2018-08-22T22:31:54.558Z,6.83
2018-08-22T22:34:22.754Z,6.77
2018-08-22T22:36:51.034Z,6.67
2018-08-22T22:39:35.103Z,6.20
2018-08-22T22:42:42.482Z,6.40
2018-08-22T22:45:11.098Z,7.37
2018-08-22T22:47:39.409Z,6.63
2018-08-22T22:50:08.155Z,6.63
2018-08-22T22:52:38.438Z,6.70
2018-08-22T22:55:07.687Z,6.67
2018-08-22T22:57:37.245Z,7.03
2018-08-22T23:00:07.587Z,6.63
2018-08-22T23:02:36.107Z,6.80
2018-08-22T23:05:04.807Z,6.70
2018-08-22T23:07:35.132Z,6.47
2018-08-22T23:10:05.560Z,6.60
2018-08-22T23:12:37.415Z,6.70
2018-08-22T23:15:07.127Z,6.77
2018-08-22T23:17:35.452Z,6.47
2018-08-22T23:20:30.694Z,6.60
2018-08-22T23:22:58.919Z,6.63
2018-08-22T23:25:27.668Z,6.50
2018-08-22T23:27:56.381Z,6.90
2018-08-22T23:30:37.030Z,6.93
2018-08-22T23:33:06.005Z,6.50
2018-08-22T23:35:35.239Z,6.53
2018-08-22T23:38:04.655Z,6.63
2018-08-22T23:40:34.028Z,6.50
2018-08-22T23:43:02.238Z,7.00
2018-08-22T23:45:30.577Z,6.80
2018-08-22T23:47:58.807Z,6.93
2018-08-22T23:50:36.849Z,6.70
2018-08-22T23:53:05.174Z,6.83
2018-08-22T23:55:33.552Z,7.37
2018-08-22T23:58:01.793Z,6.57
